Time;durP1;ratioP1;P1;durP2;ratioP2;P2;SDS_P1;SDS_P2;PMS_P1;PMS_P2;Temp;Humidity;BMP_temperature;BMP_pressure;BME280_temperature;BME280_humidity;BME280_pressure;Samples;Min_cycle;Max_cycle;Signal;HPM_P1;HPM_P2
2021/08/24 00:01:51;;;;;;;4.27;2.83;;;;;;;14.84;81.77;102716.41;5054333;28;20017;-35
2021/08/24 00:04:17;;;;;;;3.75;2.92;;;;;;;14.82;81.84;102713.03;5053911;28;20111;-35
2021/08/24 00:06:42;;;;;;;5.85;2.97;;;;;;;14.75;81.99;102706.78;5054352;28;20067;-35
2021/08/24 00:09:07;;;;;;;5.38;2.80;;;;;;;14.79;81.95;102713.47;5054173;28;20032;-35
2021/08/24 00:11:34;;;;;;;6.17;3.40;;;;;;;14.74;82.06;102707.81;5053592;28;20112;-35
2021/08/24 00:14:05;;;;;;;4.55;2.70;;;;;;;14.77;82.21;102713.66;5053711;28;20277;-35
2021/08/24 00:16:31;;;;;;;3.97;2.78;;;;;;;14.74;81.90;102715.97;5053966;28;20028;-35
2021/08/24 00:18:56;;;;;;;5.50;3.28;;;;;;;14.75;81.96;102712.22;5053924;28;20349;-35
2021/08/24 00:21:22;;;;;;;4.05;2.50;;;;;;;14.63;82.38;102726.47;5053918;28;20060;-35
2021/08/24 00:23:47;;;;;;;7.18;3.60;;;;;;;14.64;82.68;102719.13;5052938;28;20063;-35
2021/08/24 00:26:12;;;;;;;5.13;2.90;;;;;;;14.63;82.78;102721.03;5053812;28;20402;-35
2021/08/24 00:28:38;;;;;;;6.57;2.40;;;;;;;14.64;82.14;102722.72;5053644;28;20025;-35
2021/08/24 00:31:03;;;;;;;4.23;2.80;;;;;;;14.43;82.43;102691.09;5053441;28;20033;-35
2021/08/24 00:33:29;;;;;;;4.28;3.00;;;;;;;14.51;82.22;102722.72;5053380;28;20267;-35
2021/08/24 00:35:54;;;;;;;5.60;3.33;;;;;;;14.42;82.60;102692.13;5053455;28;20361;-35
2021/08/24 00:38:23;;;;;;;4.15;2.85;;;;;;;14.39;82.60;102703.44;5053083;28;20119;-35
2021/08/24 00:41:01;;;;;;;5.68;3.20;;;;;;;14.45;82.91;102712.66;5053977;28;20064;-35
2021/08/24 00:43:29;;;;;;;5.38;3.42;;;;;;;14.50;82.88;102710.19;5053739;28;20033;-35
2021/08/24 00:46:03;;;;;;;4.28;2.58;;;;;;;14.42;83.33;102721.25;5053698;28;20024;-35
2021/08/24 00:48:32;;;;;;;4.28;2.90;;;;;;;14.46;83.58;102721.66;5052858;28;20094;-35
2021/08/24 00:50:58;;;;;;;6.20;2.90;;;;;;;14.48;83.20;102723.16;5053315;28;20052;-35
2021/08/24 00:53:29;;;;;;;5.45;3.75;;;;;;;14.45;82.37;102709.13;5053140;28;20049;-35
2021/08/24 00:55:55;;;;;;;5.70;2.97;;;;;;;14.43;82.55;102715.59;5053528;28;20067;-35
2021/08/24 00:58:20;;;;;;;;;;;;;;;14.55;81.85;102715.81;5053700;28;20036;-35
2021/08/24 01:00:46;;;;;;;6.03;3.20;;;;;;;14.23;83.14;102700.31;5052788;28;19905;-35
2021/08/24 01:03:24;;;;;;;5.35;3.40;;;;;;;14.32;83.33;102726.28;5052494;28;20033;-36
2021/08/24 01:05:51;;;;;;;3.35;2.92;;;;;;;14.27;82.97;102716.03;5052814;28;20033;-35
2021/08/24 01:08:35;;;;;;;7.35;3.45;;;;;;;14.34;83.11;102724.16;5052862;28;20108;-35
2021/08/24 01:11:27;;;;;;;3.75;2.55;;;;;;;14.24;83.24;102710.16;5053236;28;20147;-35
2021/08/24 01:14:11;;;;;;;7.00;2.95;;;;;;;14.30;83.88;102725.63;5052903;28;20025;-35
2021/08/24 01:16:43;;;;;;;3.90;3.17;;;;;;;14.12;83.69;102729.84;5052049;28;20029;-36
2021/08/24 01:19:32;;;;;;;4.45;3.33;;;;;;;14.20;83.90;102727.94;5052686;28;20021;-35
2021/08/24 01:22:32;;;;;;;5.25;3.25;;;;;;;14.17;83.82;102724.59;5053102;28;20021;-35
2021/08/24 01:25:15;;;;;;;5.20;3.15;;;;;;;14.08;84.24;102734.03;5052575;28;20021;-35
2021/08/24 01:27:54;;;;;;;7.45;3.20;;;;;;;14.00;84.14;102728.78;5052987;28;20086;-35
2021/08/24 01:30:48;;;;;;;6.15;3.53;;;;;;;14.06;84.09;102735.28;5053298;28;20360;-35
2021/08/24 01:33:52;;;;;;;4.38;2.90;;;;;;;14.06;84.08;102736.13;5053068;28;20071;-35
2021/08/24 01:36:36;;;;;;;6.57;3.20;;;;;;;13.94;84.72;102732.34;4974516;28;20035;-35
2021/08/24 01:39:13;;;;;;;6.78;3.38;;;;;;;13.95;84.68;102733.16;4976277;28;20030;-35
2021/08/24 01:42:16;;;;;;;6.43;2.97;;;;;;;14.02;84.22;102726.69;4975527;28;20039;-35
2021/08/24 01:45:01;;;;;;;5.90;3.60;;;;;;;14.02;84.12;102725.88;4975919;28;20026;-35
2021/08/24 01:47:41;;;;;;;5.93;2.95;;;;;;;14.00;84.33;102730.66;4975435;28;20041;-35
2021/08/24 01:50:28;;;;;;;5.60;3.30;;;;;;;13.89;84.37;102715.78;4975380;28;20035;-35
2021/08/24 01:53:08;;;;;;;7.15;3.92;;;;;;;13.97;84.56;102731.94;4975850;28;20039;-35
2021/08/24 01:55:41;;;;;;;6.22;3.05;;;;;;;13.92;84.31;102712.69;4975459;28;20117;-35
2021/08/24 01:58:19;;;;;;;6.25;3.20;;;;;;;14.03;84.46;102735.69;4975193;28;20389;-35
2021/08/24 02:00:48;;;;;;;3.55;2.80;;;;;;;13.86;83.47;102725.22;4975355;28;20034;-35
2021/08/24 02:03:18;;;;;;;5.20;3.33;;;;;;;13.90;84.51;102726.47;4975873;28;20375;-35
2021/08/24 02:05:49;;;;;;;4.45;3.20;;;;;;;13.73;84.61;102725.19;4959624;28;20390;-36
2021/08/24 02:08:26;;;;;;;8.35;3.67;;;;;;;13.75;84.36;102711.38;4975497;28;20043;-35
2021/08/24 02:10:56;;;;;;;7.03;3.75;;;;;;;13.80;84.61;102741.50;4975557;28;20050;-35
2021/08/24 02:13:23;;;;;;;3.65;2.72;;;;;;;13.88;83.94;102744.88;5031093;28;20041;-35
2021/08/24 02:15:54;;;;;;;6.30;3.38;;;;;;;13.79;84.60;102737.13;5056579;28;20108;-35
2021/08/24 02:18:25;;;;;;;5.32;3.50;;;;;;;13.82;83.78;102743.00;5056068;28;20036;-35
2021/08/24 02:21:13;;;;;;;7.38;3.30;;;;;;;13.64;84.67;102727.25;5056604;28;20024;-35
2021/08/24 02:23:39;;;;;;;5.63;3.05;;;;;;;13.68;84.50;102745.91;5055936;28;20049;-35
2021/08/24 02:26:09;;;;;;;4.22;2.97;;;;;;;13.71;84.78;102745.47;5055851;28;20024;-35
2021/08/24 02:28:37;;;;;;;5.65;3.25;;;;;;;13.60;84.37;102739.59;5055719;28;20021;-35
2021/08/24 02:31:27;;;;;;;4.85;2.92;;;;;;;13.71;84.40;102759.06;5055573;28;20082;-35
2021/08/24 02:34:04;;;;;;;3.50;2.85;;;;;;;13.70;84.47;102755.50;5055754;28;20108;-35
2021/08/24 02:36:33;;;;;;;4.18;3.05;;;;;;;13.61;84.78;102738.53;5056290;28;20021;-35
2021/08/24 02:39:06;;;;;;;5.53;3.17;;;;;;;13.70;83.98;102762.81;5055655;28;20021;-35
2021/08/24 02:41:40;;;;;;;6.10;3.40;;;;;;;13.51;84.50;102748.13;5055872;28;20025;-35
2021/08/24 02:44:12;;;;;;;7.40;3.20;;;;;;;13.58;84.48;102759.88;5055608;28;20104;-35
2021/08/24 02:46:42;;;;;;;12.98;3.83;;;;;;;13.60;84.40;102761.31;5055033;28;20319;-35
2021/08/24 02:49:15;;;;;;;4.88;3.50;;;;;;;13.60;84.30;102764.03;5055560;28;20029;-35
2021/08/24 02:51:41;;;;;;;6.28;3.38;;;;;;;13.42;85.11;102763.81;5056000;28;20048;-35
2021/08/24 02:54:15;;;;;;;5.60;2.78;;;;;;;13.46;84.88;102767.75;5054749;28;20423;-35
2021/08/24 02:56:41;;;;;;;6.72;3.53;;;;;;;13.38;85.08;102768.78;5055639;28;20017;-35
2021/08/24 02:59:07;;;;;;;6.78;3.38;;;;;;;13.31;84.93;102757.03;5055501;28;20234;-35
2021/08/24 03:01:32;;;;;;;4.32;2.95;;;;;;;13.41;84.46;102764.81;5055601;28;20108;-35
2021/08/24 03:03:58;;;;;;;3.88;2.58;;;;;;;13.39;84.17;102761.47;5054979;28;20147;-35
2021/08/24 03:06:24;;;;;;;9.07;3.13;;;;;;;13.36;85.20;102761.88;5055805;28;20052;-35
2021/08/24 03:08:50;;;;;;;6.13;3.03;;;;;;;13.31;84.88;102769.78;5055462;28;20017;-35
2021/08/24 03:11:25;;;;;;;5.85;3.20;;;;;;;13.20;85.10;102754.03;5055167;28;20020;-35
2021/08/24 03:14:00;;;;;;;5.60;3.20;;;;;;;13.21;84.60;102767.41;5055556;28;20407;-35
2021/08/24 03:16:36;;;;;;;3.45;2.65;;;;;;;13.17;85.38;102763.41;5055316;28;20364;-35
2021/08/24 03:19:05;;;;;;;4.22;3.10;;;;;;;13.17;85.05;102762.59;5055112;28;20110;-35
2021/08/24 03:21:34;;;;;;;4.78;2.90;;;;;;;13.09;84.96;102767.16;5055068;28;20086;-35
2021/08/24 03:24:01;;;;;;;6.47;3.20;;;;;;;13.08;85.58;102768.22;5055863;28;20406;-35
2021/08/24 03:26:35;;;;;;;5.80;2.85;;;;;;;12.98;85.42;102758.72;5055286;28;20060;-35
2021/08/24 03:29:14;;;;;;;5.82;3.15;;;;;;;13.11;85.15;102766.94;5054646;28;20461;-35
2021/08/24 03:31:40;;;;;;;4.70;2.65;;;;;;;13.13;84.93;102773.03;5054674;28;20023;-35
2021/08/24 03:34:07;;;;;;;4.82;3.05;;;;;;;13.10;84.81;102762.56;5053953;28;20111;-35
2021/08/24 03:36:33;;;;;;;5.60;3.22;;;;;;;13.02;85.21;102758.13;5054611;28;20029;-35
2021/08/24 03:38:58;;;;;;;7.95;3.10;;;;;;;12.94;85.32;102755.59;5054463;28;20165;-35
2021/08/24 03:41:24;;;;;;;4.73;3.20;;;;;;;12.99;85.71;102761.25;5054569;28;20028;-35
2021/08/24 03:43:49;;;;;;;6.25;3.35;;;;;;;13.03;85.70;102761.69;5054736;28;20025;-36
2021/08/24 03:46:15;;;;;;;6.20;3.42;;;;;;;13.03;85.63;102770.69;5055059;28;20025;-35
2021/08/24 03:48:41;;;;;;;4.45;3.13;;;;;;;12.77;85.68;102756.94;5054480;28;20369;-35
2021/08/24 03:51:06;;;;;;;3.93;3.20;;;;;;;12.97;85.48;102762.47;5054765;28;20029;-35
2021/08/24 03:53:35;;;;;;;5.38;3.55;;;;;;;12.90;85.36;102770.59;5054758;28;20021;-35
2021/08/24 03:56:00;;;;;;;8.40;3.90;;;;;;;12.87;85.58;102776.41;5054778;28;20075;-35
2021/08/24 03:58:26;;;;;;;6.38;3.92;;;;;;;12.87;85.71;102776.41;5054054;28;20021;-35
2021/08/24 04:00:52;;;;;;;5.80;3.50;;;;;;;12.99;86.15;102777.56;5054526;28;20029;-35
2021/08/24 04:03:17;;;;;;;7.68;3.63;;;;;;;12.90;86.28;102784.19;5054079;28;20029;-35
2021/08/24 04:05:43;;;;;;;6.05;3.60;;;;;;;12.85;86.39;102781.22;5054144;28;20151;-35
2021/08/24 04:08:08;;;;;;;5.30;3.65;;;;;;;12.79;86.32;102787.47;5053756;28;20139;-35
2021/08/24 04:10:34;;;;;;;6.73;3.60;;;;;;;12.88;86.42;102791.66;5054247;28;20115;-35
2021/08/24 04:12:59;;;;;;;5.03;3.47;;;;;;;12.70;86.33;102781.34;5054626;28;20025;-35
2021/08/24 04:15:26;;;;;;;8.03;3.67;;;;;;;12.63;86.55;102767.69;5054006;28;20418;-35
2021/08/24 04:17:51;;;;;;;7.22;3.65;;;;;;;12.86;87.37;102788.31;5054032;28;20025;-35
2021/08/24 04:20:17;;;;;;;5.47;3.53;;;;;;;12.77;86.97;102797.66;5054316;28;20437;-35
2021/08/24 04:22:49;;;;;;;4.85;3.25;;;;;;;12.73;87.22;102788.22;5054048;28;20070;-35
2021/08/24 04:25:16;;;;;;;4.88;3.33;;;;;;;12.77;86.64;102800.38;5053751;28;20150;-35
2021/08/24 04:27:43;;;;;;;5.93;3.85;;;;;;;12.70;87.47;102791.34;5053558;28;20020;-35
2021/08/24 04:30:09;;;;;;;6.75;4.07;;;;;;;12.70;87.40;102789.47;5054193;28;20353;-35
2021/08/24 04:32:37;;;;;;;4.65;3.33;;;;;;;12.76;87.35;102804.97;5053464;28;20476;-35
2021/08/24 04:35:04;;;;;;;5.13;3.80;;;;;;;12.67;87.60;102802.59;5053361;28;20029;-34
2021/08/24 04:37:29;;;;;;;5.85;3.92;;;;;;;12.69;87.53;102801.38;5053871;28;20032;-34
2021/08/24 04:39:54;;;;;;;7.00;3.90;;;;;;;12.67;87.76;102805.31;5053811;28;20025;-34
2021/08/24 04:42:20;;;;;;;6.03;3.23;;;;;;;12.70;87.83;102805.75;5053614;28;20035;-34
2021/08/24 04:44:45;;;;;;;8.83;3.90;;;;;;;12.63;87.63;102802.16;5052962;28;20345;-35
2021/08/24 04:47:11;;;;;;;5.65;3.92;;;;;;;12.71;87.90;102798.47;5053651;28;20333;-35
2021/08/24 04:49:36;;;;;;;6.17;4.53;;;;;;;12.64;87.89;102812.00;5052925;28;20099;-36
2021/08/24 04:52:02;;;;;;;7.27;3.90;;;;;;;12.71;87.38;102814.75;5053642;28;20259;-35
2021/08/24 04:54:33;;;;;;;6.50;4.10;;;;;;;12.54;87.61;102801.47;5053104;28;20064;-35
2021/08/24 04:57:05;;;;;;;5.10;3.97;;;;;;;12.60;87.94;102811.53;5053311;28;20020;-35
2021/08/24 04:59:32;;;;;;;8.82;4.30;;;;;;;12.61;88.22;102815.91;5053264;28;20040;-35
2021/08/24 05:01:57;;;;;;;7.28;4.45;;;;;;;12.69;88.60;102817.66;5053111;28;20021;-35
2021/08/24 05:04:23;;;;;;;8.43;4.60;;;;;;;12.62;88.82;102816.75;5052886;28;20071;-35
2021/08/24 05:06:50;;;;;;;7.43;4.50;;;;;;;12.69;87.76;102817.66;5052940;28;20479;-35
2021/08/24 05:09:15;;;;;;;7.13;3.92;;;;;;;12.70;89.02;102824.78;5052351;28;20025;-35
2021/08/24 05:11:41;;;;;;;7.18;4.28;;;;;;;12.68;88.52;102824.09;5053253;28;20032;-35
2021/08/24 05:14:06;;;;;;;10.90;4.87;;;;;;;12.75;88.92;102824.19;5052498;28;20029;-35
2021/08/24 05:16:31;;;;;;;11.00;4.63;;;;;;;12.67;88.19;102821.59;5052987;28;20052;-35
2021/08/24 05:18:57;;;;;;;8.37;5.00;;;;;;;12.82;89.28;102835.91;5053020;28;20407;-35
2021/08/24 05:21:22;;;;;;;8.03;4.47;;;;;;;12.84;89.24;102842.84;5053352;28;20293;-35
2021/08/24 05:23:47;;;;;;;7.80;4.30;;;;;;;12.94;88.86;102847.09;5052421;28;20044;-35
2021/08/24 05:26:16;;;;;;;7.13;4.73;;;;;;;12.89;88.87;102848.50;5052761;28;20025;-35
2021/08/24 05:28:42;;;;;;;10.52;5.45;;;;;;;12.97;89.03;102844.78;5052492;28;20091;-35
2021/08/24 05:31:08;;;;;;;7.97;5.05;;;;;;;13.01;88.57;102851.50;5053448;28;20029;-35
2021/08/24 05:33:33;;;;;;;7.18;4.15;;;;;;;13.10;88.96;102844.06;5052700;28;20063;-35
2021/08/24 05:35:59;;;;;;;10.10;4.97;;;;;;;13.07;88.59;102839.84;5053362;28;20036;-35
2021/08/24 05:38:24;;;;;;;10.32;5.55;;;;;;;13.20;87.61;102844.53;5052356;28;20354;-35
2021/08/24 05:40:50;;;;;;;6.60;5.30;;;;;;;13.19;88.50;102829.28;5052672;28;20021;-35
2021/08/24 05:43:15;;;;;;;7.50;4.88;;;;;;;13.36;88.50;102832.53;5052836;28;20021;-35
2021/08/24 05:45:41;;;;;;;9.00;4.90;;;;;;;13.45;88.66;102838.63;5052914;28;20399;-35
2021/08/24 05:48:06;;;;;;;9.57;5.17;;;;;;;13.49;88.30;102832.59;5051500;28;20048;-35
2021/08/24 05:50:31;;;;;;;7.37;4.80;;;;;;;13.52;87.73;102845.78;5053262;28;20074;-35
2021/08/24 05:52:57;;;;;;;9.90;5.90;;;;;;;13.52;87.58;102845.78;5052477;28;20271;-35
2021/08/24 05:55:22;;;;;;;8.47;5.40;;;;;;;13.52;87.61;102832.19;5052846;28;20024;-35
2021/08/24 05:57:47;;;;;;;12.73;5.80;;;;;;;13.62;87.72;102853.56;5052716;28;20263;-35
2021/08/24 06:00:13;;;;;;;11.40;6.32;;;;;;;13.52;88.71;102832.19;5052525;28;20025;-35
2021/08/24 06:02:39;;;;;;;13.32;5.70;;;;;;;13.71;88.46;102843.34;5053020;28;20036;-35
2021/08/24 06:05:08;;;;;;;11.02;5.40;;;;;;;13.74;87.69;102846.50;5052823;28;20500;-35
2021/08/24 06:07:37;;;;;;;8.32;5.60;;;;;;;13.86;88.04;102850.31;5052924;28;20045;-35
2021/08/24 06:10:03;;;;;;;8.32;5.45;;;;;;;13.89;87.81;102846.34;5052435;28;20035;-35
2021/08/24 06:12:28;;;;;;;7.45;5.72;;;;;;;14.00;87.55;102845.72;5052444;28;20454;-35
2021/08/24 06:14:54;;;;;;;8.90;5.57;;;;;;;14.05;86.99;102842.41;5052151;28;20039;-35
2021/08/24 06:17:19;;;;;;;8.65;5.93;;;;;;;14.10;87.37;102840.75;5052726;28;20073;-35
2021/08/24 06:19:44;;;;;;;7.33;5.80;;;;;;;14.15;87.48;102838.25;5052660;28;20055;-35
2021/08/24 06:22:10;;;;;;;10.40;6.67;;;;;;;14.17;87.90;102829.88;5055447;28;20020;-35
2021/08/24 06:24:37;;;;;;;10.60;6.40;;;;;;;14.24;87.67;102832.59;5055887;28;20028;-35
2021/08/24 06:27:04;;;;;;;9.85;6.43;;;;;;;14.33;87.95;102845.81;5056556;28;20032;-35
2021/08/24 06:29:30;;;;;;;10.15;6.40;;;;;;;14.38;87.21;102842.47;5056234;28;20107;-35
2021/08/24 06:31:59;;;;;;;9.47;6.63;;;;;;;14.46;88.39;102852.31;5056395;28;20029;-35
2021/08/24 06:34:24;;;;;;;10.57;6.70;;;;;;;14.49;87.98;102857.38;5056563;28;20365;-35
2021/08/24 06:36:51;;;;;;;12.00;7.10;;;;;;;14.54;87.92;102853.00;5054735;28;20033;-35
2021/08/24 06:39:16;;;;;;;9.10;6.80;;;;;;;14.49;87.39;102847.31;5055445;28;20036;-35
2021/08/24 06:41:42;;;;;;;11.07;7.20;;;;;;;14.61;87.62;102847.53;5056148;28;20037;-35
2021/08/24 06:44:09;;;;;;;13.83;6.17;;;;;;;14.68;88.40;102853.81;5055839;28;20401;-35
2021/08/24 06:46:35;;;;;;;8.35;6.60;;;;;;;14.74;88.10;102854.84;5056226;28;20123;-35
2021/08/24 06:49:00;;;;;;;14.65;7.40;;;;;;;14.74;88.13;102844.81;5055291;28;20513;-35
2021/08/24 06:51:26;;;;;;;11.40;7.03;;;;;;;14.83;87.37;102861.78;5055621;28;20457;-35
2021/08/24 06:53:51;;;;;;;13.27;7.03;;;;;;;14.84;87.97;102836.22;5055572;28;20283;-35
2021/08/24 06:56:17;;;;;;;11.37;7.97;;;;;;;14.89;87.17;102855.50;5056053;28;20082;-35
2021/08/24 06:58:43;;;;;;;12.17;6.97;;;;;;;14.94;87.80;102852.97;5055440;28;20051;-35
2021/08/24 07:01:29;;;;;;;12.13;7.85;;;;;;;14.97;88.02;102852.53;5055434;28;20252;-35
2021/08/24 07:03:55;;;;;;;12.30;7.78;;;;;;;15.01;87.74;102847.50;5055322;28;20025;-35
2021/08/24 07:06:20;;;;;;;12.65;7.57;;;;;;;15.09;87.63;102855.47;5055974;28;20037;-35
2021/08/24 07:08:45;;;;;;;9.20;7.77;;;;;;;15.12;88.06;102850.41;5055293;28;20068;-35
2021/08/24 07:11:12;;;;;;;12.13;7.15;;;;;;;15.17;87.57;102860.69;5055048;28;20256;-35
2021/08/24 07:13:39;;;;;;;10.60;7.50;;;;;;;15.17;87.79;102864.25;5055149;28;20036;-35
2021/08/24 07:16:06;;;;;;;14.50;7.65;;;;;;;15.29;87.71;102860.88;5055886;28;20151;-35
2021/08/24 07:18:32;;;;;;;14.20;8.35;;;;;;;15.38;88.14;102859.59;5055099;28;20021;-35
2021/08/24 07:20:57;;;;;;;11.95;8.27;;;;;;;15.40;87.04;102860.22;5055384;28;20032;-36
2021/08/24 07:23:23;;;;;;;14.90;8.55;;;;;;;15.40;86.95;102846.59;5055014;28;20024;-36
2021/08/24 07:25:48;;;;;;;14.57;7.95;;;;;;;15.57;87.26;102863.31;5055243;28;20369;-36
2021/08/24 07:28:14;;;;;;;12.07;8.00;;;;;;;15.64;87.08;102854.06;5054865;28;20017;-36
2021/08/24 07:30:42;;;;;;;11.50;7.50;;;;;;;15.63;86.63;102851.53;5055173;28;20021;-36
2021/08/24 07:33:09;;;;;;;13.57;8.70;;;;;;;15.75;86.83;102857.19;5054160;28;20128;-36
2021/08/24 07:35:35;;;;;;;13.13;8.35;;;;;;;15.68;85.75;102844.41;5055030;28;20021;-36
2021/08/24 07:38:01;;;;;;;10.60;7.78;;;;;;;15.84;86.09;102853.16;5054400;28;20060;-36
2021/08/24 07:40:27;;;;;;;;;;;;;;;15.93;85.93;102857.31;5055839;28;20025;-36
2021/08/24 07:42:52;;;;;;;10.52;7.50;;;;;;;15.99;86.54;102863.78;5054672;28;19909;-36
2021/08/24 07:45:18;;;;;;;10.43;7.80;;;;;;;15.98;85.93;102854.75;5054361;28;20017;-36
2021/08/24 07:47:43;;;;;;;11.80;8.43;;;;;;;16.09;85.65;102864.13;5055063;28;20306;-36
2021/08/24 07:50:09;;;;;;;10.55;7.80;;;;;;;16.17;85.75;102870.19;5054230;28;20048;-36
2021/08/24 07:52:34;;;;;;;12.50;8.02;;;;;;;16.25;86.08;102868.22;5053279;28;20041;-36
2021/08/24 07:54:59;;;;;;;;;;;;;;;16.39;85.68;102867.91;5054869;28;20017;-36
2021/08/24 07:57:25;;;;;;;12.17;8.40;;;;;;;16.45;85.04;102869.78;5054418;28;19974;-36
2021/08/24 07:59:50;;;;;;;17.40;7.78;;;;;;;16.48;84.34;102865.75;5054011;28;20275;-36
2021/08/24 08:02:17;;;;;;;10.68;7.95;;;;;;;16.55;84.36;102858.38;5054314;28;20103;-36
2021/08/24 08:04:43;;;;;;;12.73;7.93;;;;;;;16.62;84.15;102863.78;5054149;28;20326;-36
2021/08/24 08:07:09;;;;;;;10.25;8.00;;;;;;;16.61;83.63;102854.75;5054190;28;20041;-36
2021/08/24 08:09:35;;;;;;;12.05;7.40;;;;;;;16.73;83.67;102874.84;5052611;28;20091;-36
2021/08/24 08:12:00;;;;;;;13.70;8.40;;;;;;;16.80;83.57;102866.59;5053736;28;20434;-36
2021/08/24 08:14:25;;;;;;;;;;;;;;;16.90;83.64;102869.66;5054401;28;20054;-35
2021/08/24 08:16:50;;;;;;;10.77;7.27;;;;;;;16.79;82.32;102861.34;5053688;28;20372;-36
2021/08/24 08:19:16;;;;;;;10.70;6.93;;;;;;;16.95;82.52;102869.81;5053962;28;20604;-36
2021/08/24 08:21:41;;;;;;;9.05;7.25;;;;;;;17.09;82.79;102866.97;5054496;28;20025;-36
2021/08/24 08:24:07;;;;;;;;;;;;;;;17.21;82.38;102865.97;5053973;28;20369;-36
2021/08/24 08:26:33;;;;;;;10.20;6.65;;;;;;;17.26;81.52;102870.78;5054080;28;20302;-36
2021/08/24 08:29:03;;;;;;;8.70;7.20;;;;;;;17.28;80.92;102868.66;5053793;28;20527;-36
2021/08/24 08:31:28;;;;;;;9.20;6.70;;;;;;;17.31;81.10;102854.53;5053718;28;20029;-36
2021/08/24 08:33:54;;;;;;;13.93;7.18;;;;;;;17.53;81.67;102865.84;5053646;28;20028;-36
2021/08/24 08:36:19;;;;;;;;;;;;;;;17.65;81.93;102864.00;5054120;28;20017;-36
2021/08/24 08:38:44;;;;;;;11.90;6.57;;;;;;;17.61;78.03;102861.94;5053283;28;19904;-36
2021/08/24 08:41:32;;;;;;;9.80;6.53;;;;;;;17.73;79.01;102855.53;5053629;28;20265;-36
2021/08/24 08:44:26;;;;;;;10.40;6.25;;;;;;;17.80;79.45;102854.59;5053260;28;20039;-36
2021/08/24 08:47:09;;;;;;;10.80;5.78;;;;;;;17.91;78.89;102842.84;5053423;28;20360;-36
2021/08/24 08:50:22;;;;;;;8.90;5.05;;;;;;;18.09;77.91;102861.16;5053870;28;20021;-36
2021/08/24 08:53:00;;;;;;;7.88;5.30;;;;;;;18.20;77.49;102855.72;4972234;28;20093;-36
2021/08/24 08:55:34;;;;;;;8.38;4.72;;;;;;;18.30;75.89;102846.09;4972698;28;20046;-36
2021/08/24 08:58:11;;;;;;;5.95;4.82;;;;;;;18.35;73.58;102847.06;4972616;28;20475;-36
2021/08/24 09:00:46;;;;;;;6.18;4.60;;;;;;;18.47;74.78;102849.81;4972491;28;20328;-36
2021/08/24 09:03:20;;;;;;;6.93;4.25;;;;;;;18.57;73.61;102852.81;4972549;28;20411;-36
2021/08/24 09:05:47;;;;;;;8.20;4.32;;;;;;;18.70;72.90;102857.28;4972191;28;20150;-36
2021/08/24 09:08:15;;;;;;;7.78;4.35;;;;;;;18.74;72.31;102859.31;4972317;28;20057;-36
2021/08/24 09:10:48;;;;;;;7.57;4.07;;;;;;;18.80;70.62;102859.44;4972094;28;20042;-36
2021/08/24 09:13:44;;;;;;;8.23;4.13;;;;;;;18.92;72.04;102855.63;4972243;28;20109;-36
2021/08/24 09:16:12;;;;;;;7.15;3.97;;;;;;;19.01;69.31;102856.09;4972564;28;20048;-36
2021/08/24 09:18:53;;;;;;;8.63;3.78;;;;;;;19.05;68.10;102854.56;4971895;28;20100;-36
2021/08/24 09:21:27;;;;;;;6.68;3.83;;;;;;;19.14;67.62;102852.28;4972558;28;20122;-36
2021/08/24 09:23:54;;;;;;;6.00;3.58;;;;;;;19.16;67.12;102850.97;4972076;28;20026;-36
2021/08/24 09:26:37;;;;;;;7.43;3.70;;;;;;;19.22;67.82;102852.72;4999567;28;20029;-36
2021/08/24 09:29:05;;;;;;;7.57;3.50;;;;;;;19.36;67.26;102858.78;5052737;28;20032;-36
2021/08/24 09:31:30;;;;;;;6.50;3.38;;;;;;;19.49;67.34;102844.81;5053184;28;20068;-36
2021/08/24 09:33:56;;;;;;;;;;;;;;;19.64;68.71;102843.50;5053153;28;20441;-36
2021/08/24 09:36:21;;;;;;;6.20;3.27;;;;;;;19.48;64.91;102834.09;5053080;28;19919;-36
2021/08/24 09:38:51;;;;;;;5.70;3.33;;;;;;;19.69;66.02;102846.34;5052670;28;20043;-36
2021/08/24 09:41:29;;;;;;;6.60;3.95;;;;;;;19.75;67.73;102834.38;5052759;28;20075;-36
2021/08/24 09:43:58;;;;;;;7.45;3.58;;;;;;;19.95;66.27;102855.91;5053067;28;20025;-36
2021/08/24 09:46:32;;;;;;;5.47;3.47;;;;;;;20.07;64.52;102842.97;5052963;28;20350;-36
2021/08/24 09:49:27;;;;;;;9.00;3.72;;;;;;;19.95;64.63;102848.50;5052717;28;20028;-36
2021/08/24 09:52:08;;;;;;;6.72;3.10;;;;;;;20.10;65.29;102847.13;5053503;28;20028;-36
2021/08/24 09:54:44;;;;;;;4.82;3.15;;;;;;;20.09;62.75;102843.53;5052912;28;20040;-37
2021/08/24 09:57:09;;;;;;;6.25;3.55;;;;;;;20.14;64.52;102846.38;5056173;28;20104;-36
2021/08/24 09:59:40;;;;;;;;;;;;;;;20.32;64.64;102850.84;5057201;28;20117;-37
2021/08/24 10:02:25;;;;;;;6.97;3.00;;;;;;;20.28;63.55;102831.25;5057349;28;19998;-35
2021/08/24 10:04:53;;;;;;;5.32;2.90;;;;;;;20.22;62.27;102826.75;5057097;28;20021;-35
2021/08/24 10:07:32;;;;;;;8.85;3.58;;;;;;;20.45;63.84;102839.53;5056143;28;20088;-35
2021/08/24 10:09:58;;;;;;;6.13;3.22;;;;;;;20.55;62.74;102841.66;5056248;28;20027;-36
2021/08/24 10:12:30;;;;;;;5.40;3.30;;;;;;;20.70;62.63;102827.31;5056215;28;20032;-36
2021/08/24 10:14:57;;;;;;;4.47;3.25;;;;;;;20.68;61.52;102823.97;5056541;28;20028;-37
2021/08/24 10:17:36;;;;;;;5.85;3.05;;;;;;;20.79;62.66;102820.31;5056969;28;20029;-35
2021/08/24 10:20:24;;;;;;;5.68;2.80;;;;;;;21.07;62.31;102822.06;5056773;28;20037;-35
2021/08/24 10:22:52;;;;;;;5.97;3.30;;;;;;;20.65;60.99;102824.50;5056498;28;20092;-36
2021/08/24 10:25:41;;;;;;;7.55;3.20;;;;;;;20.44;62.73;102820.53;5056151;28;20500;-35
2021/08/24 10:28:12;;;;;;;4.95;3.05;;;;;;;20.81;62.16;102829.97;5056469;28;20024;-36
2021/08/24 10:30:52;;;;;;;5.93;2.88;;;;;;;21.08;61.32;102821.84;5056522;28;20518;-36
2021/08/24 10:33:34;;;;;;;6.03;3.05;;;;;;;21.32;62.17;102821.59;5055889;28;20025;-36
2021/08/24 10:36:06;;;;;;;5.50;2.45;;;;;;;21.33;61.28;102817.78;5056091;28;20108;-36
2021/08/24 10:38:53;;;;;;;6.03;2.83;;;;;;;21.56;60.40;102814.75;5055232;28;20388;-35
2021/08/24 10:41:30;;;;;;;5.22;2.65;;;;;;;21.75;59.57;102814.41;5056315;28;20365;-36
2021/08/24 10:44:00;;;;;;;3.30;2.40;;;;;;;21.56;56.26;102808.41;5056477;28;20028;-36
2021/08/24 10:46:26;;;;;;;3.75;2.38;;;;;;;21.39;55.94;102816.75;5056287;28;20021;-36
2021/08/24 10:48:52;;;;;;;4.45;2.70;;;;;;;21.42;57.11;102818.97;5056308;28;20032;-36
2021/08/24 10:51:40;;;;;;;6.25;2.80;;;;;;;21.38;56.20;102814.28;5056069;28;20025;-36
2021/08/24 10:54:12;;;;;;;5.30;2.53;;;;;;;21.27;56.60;102816.84;5056237;28;20029;-35
2021/08/24 10:56:53;;;;;;;8.50;3.00;;;;;;;21.19;57.05;102819.22;5055629;28;20029;-36
2021/08/24 10:59:18;;;;;;;5.60;2.40;;;;;;;21.36;59.33;102811.75;5055255;28;20028;-36
2021/08/24 11:01:49;;;;;;;10.02;3.30;;;;;;;21.41;59.26;102791.72;5055468;28;20036;-36
2021/08/24 11:04:46;;;;;;;5.85;2.53;;;;;;;21.79;58.43;102808.13;5055801;28;20024;-36
2021/08/24 11:07:31;;;;;;;9.25;2.92;;;;;;;21.76;55.75;102796.78;5043994;28;20076;-36
2021/08/24 11:10:12;;;;;;;4.82;2.20;;;;;;;21.98;56.76;102805.03;5055215;28;20454;-36
2021/08/24 11:13:16;;;;;;;4.85;2.40;;;;;;;22.02;53.74;102803.41;5055301;28;20017;-36
2021/08/24 11:15:59;;;;;;;3.97;2.00;;;;;;;22.07;55.61;102792.44;5040625;28;20091;-36
2021/08/24 11:18:49;;;;;;;3.72;2.35;;;;;;;22.22;53.72;102800.03;5055927;28;20047;-36
2021/08/24 11:21:43;;;;;;;4.68;2.20;;;;;;;22.28;53.98;102810.00;5055168;28;20052;-36
2021/08/24 11:24:47;;;;;;;7.72;2.70;;;;;;;22.53;56.45;102801.94;5055647;28;20056;-36
2021/08/24 11:27:56;;;;;;;3.40;2.03;;;;;;;22.73;55.70;102798.50;4973900;28;20118;-36
2021/08/24 11:30:41;;;;;;;4.18;2.08;;;;;;;22.49;52.43;102792.53;4897727;29;20037;-35
2021/08/24 11:33:21;;;;;;;4.40;2.42;;;;;;;22.11;53.46;102796.38;4897655;29;20032;-36
2021/08/24 11:35:52;;;;;;;4.65;2.00;;;;;;;22.20;53.81;102764.47;4897598;29;20377;-36
2021/08/24 11:38:22;;;;;;;6.13;2.45;;;;;;;22.47;54.88;102791.16;4897532;29;20043;-36
2021/08/24 11:41:03;;;;;;;3.75;2.40;;;;;;;22.56;53.25;102781.28;4897445;29;20470;-36
2021/08/24 11:43:55;;;;;;;4.18;2.00;;;;;;;22.48;51.54;102765.25;4897419;29;20161;-36